createdAt,value
2019-04-16T00:01:00.191Z,96.40
2019-04-16T00:03:31.405Z,96.20
2019-04-16T00:06:11.764Z,95.80
2019-04-16T00:08:46.081Z,96.20
2019-04-16T00:11:26.739Z,95.40
2019-04-16T00:14:03.024Z,95.40
2019-04-16T00:16:30.329Z,94.90
2019-04-16T00:19:04.424Z,94.80
2019-04-16T00:21:38.405Z,94.80
2019-04-16T00:24:12.474Z,94.80
2019-04-16T00:26:42.756Z,94.60
2019-04-16T00:29:12.971Z,94.00
2019-04-16T00:31:45.009Z,94.10
2019-04-16T00:34:15.147Z,93.20
2019-04-16T00:36:48.447Z,92.30
2019-04-16T00:39:17.160Z,92.80
2019-04-16T00:41:47.243Z,92.00
2019-04-16T00:44:17.407Z,91.70
2019-04-16T00:46:47.621Z,91.60
2019-04-16T00:49:17.791Z,91.20
2019-04-16T00:51:47.934Z,91.50
2019-04-16T00:54:18.024Z,90.90
2019-04-16T00:56:48.237Z,91.80
2019-04-16T00:59:18.395Z,91.70
2019-04-16T01:01:48.600Z,91.10
2019-04-16T01:04:18.697Z,90.50
2019-04-16T01:06:48.907Z,90.10
2019-04-16T01:09:19.065Z,89.20
2019-04-16T01:11:49.786Z,88.80
2019-04-16T01:14:20.006Z,89.30
2019-04-16T01:16:50.090Z,89.90
2019-04-16T01:19:20.302Z,90.00
2019-04-16T01:21:50.449Z,89.40
2019-04-16T01:24:21.126Z,88.80
2019-04-16T01:26:51.362Z,89.60
2019-04-16T01:29:21.579Z,90.60
2019-04-16T01:31:56.311Z,92.00
2019-04-16T01:34:47.075Z,92.80
2019-04-16T01:37:27.042Z,93.30
2019-04-16T01:39:58.931Z,93.90
2019-04-16T01:42:29.094Z,94.30
2019-04-16T01:45:00.564Z,94.50
2019-04-16T01:47:35.934Z,95.20
2019-04-16T01:50:04.517Z,94.80
2019-04-16T01:52:34.670Z,95.00
2019-04-16T01:55:05.827Z,95.50
2019-04-16T01:57:35.924Z,96.00
2019-04-16T02:00:08.531Z,96.70
2019-04-16T02:02:40.046Z,96.90
2019-04-16T02:05:10.364Z,96.30
2019-04-16T02:07:40.386Z,96.30
2019-04-16T02:10:10.915Z,96.30
2019-04-16T02:12:43.678Z,96.40
2019-04-16T02:15:12.871Z,96.30
2019-04-16T02:17:43.035Z,96.40
2019-04-16T02:20:13.278Z,96.60
2019-04-16T02:22:45.063Z,97.30
2019-04-16T02:25:19.025Z,97.30
2019-04-16T02:27:46.970Z,97.20
2019-04-16T02:30:17.121Z,97.10
2019-04-16T02:32:47.215Z,97.00
2019-04-16T02:35:17.281Z,97.10
2019-04-16T02:37:47.512Z,97.20
2019-04-16T02:40:18.879Z,97.50
2019-04-16T02:42:49.219Z,97.60
2019-04-16T02:45:23.365Z,97.50
2019-04-16T02:47:51.166Z,98.00
2019-04-16T02:50:30.484Z,98.40
2019-04-16T02:52:56.149Z,98.40
2019-04-16T02:55:27.941Z,98.20
2019-04-16T02:58:11.766Z,98.40
2019-04-16T03:00:58.402Z,98.30
2019-04-16T03:03:32.835Z,98.30
2019-04-16T03:06:02.906Z,98.10
2019-04-16T03:08:36.157Z,98.00
2019-04-16T03:11:05.997Z,98.00
2019-04-16T03:13:36.235Z,98.30
2019-04-16T03:16:08.004Z,98.50
2019-04-16T03:18:46.918Z,97.70
2019-04-16T03:21:14.291Z,98.00
2019-04-16T03:23:44.581Z,98.30
2019-04-16T03:26:17.481Z,98.40
2019-04-16T03:28:46.296Z,98.30
2019-04-16T03:31:22.342Z,98.70
2019-04-16T03:33:50.796Z,98.70
2019-04-16T03:36:20.294Z,98.80
2019-04-16T03:38:51.433Z,98.40
2019-04-16T03:41:24.817Z,98.70
2019-04-16T03:43:53.294Z,98.70
2019-04-16T03:46:23.518Z,98.80
2019-04-16T03:48:56.139Z,98.40
2019-04-16T03:51:25.373Z,98.40
2019-04-16T03:53:55.409Z,98.40
2019-04-16T03:56:27.620Z,98.30
2019-04-16T03:58:57.435Z,98.20
2019-04-16T04:01:27.594Z,98.30
2019-04-16T04:03:58.582Z,98.90
2019-04-16T04:06:29.714Z,98.60
2019-04-16T04:08:59.727Z,98.20
2019-04-16T04:11:29.891Z,97.80
2019-04-16T04:13:59.976Z,98.50
2019-04-16T04:16:30.598Z,98.30
2019-04-16T04:19:01.905Z,98.00
2019-04-16T04:21:32.264Z,98.50
2019-04-16T04:24:02.357Z,98.90
2019-04-16T04:26:32.510Z,98.80
2019-04-16T04:29:05.961Z,98.00
2019-04-16T04:31:34.577Z,98.30
2019-04-16T04:34:04.735Z,98.30
2019-04-16T04:36:34.880Z,98.10
2019-04-16T04:39:09.000Z,98.60
2019-04-16T04:41:37.850Z,98.10
2019-04-16T04:44:08.009Z,98.50
2019-04-16T04:46:38.006Z,98.30
2019-04-16T04:49:08.156Z,98.60
2019-04-16T04:51:42.499Z,98.80
2019-04-16T04:54:09.940Z,98.70
2019-04-16T04:56:40.012Z,98.40
2019-04-16T04:59:10.111Z,97.50
2019-04-16T05:01:42.039Z,97.30
2019-04-16T05:04:21.029Z,97.20
2019-04-16T05:06:54.430Z,97.10
2019-04-16T05:09:24.688Z,97.30
2019-04-16T05:11:54.850Z,97.20
2019-04-16T05:14:26.072Z,96.80
2019-04-16T05:16:56.333Z,96.40
2019-04-16T05:19:26.582Z,96.20
2019-04-16T05:21:56.725Z,95.90
2019-04-16T05:24:29.323Z,95.60
2019-04-16T05:26:58.860Z,95.80
2019-04-16T05:29:29.068Z,94.70
2019-04-16T05:31:59.506Z,93.60
2019-04-16T05:34:29.718Z,93.40
2019-04-16T05:36:59.817Z,93.30
2019-04-16T05:39:29.963Z,93.00
2019-04-16T05:42:00.122Z,92.40
2019-04-16T05:44:33.207Z,92.30
2019-04-16T05:47:01.979Z,92.10
2019-04-16T05:49:32.125Z,91.70
2019-04-16T05:52:03.745Z,91.10
2019-04-16T05:54:35.781Z,90.50
2019-04-16T05:57:07.578Z,90.10
2019-04-16T05:59:37.587Z,89.50
2019-04-16T06:02:18.376Z,88.80
2019-04-16T06:04:47.885Z,89.20
2019-04-16T06:07:18.063Z,88.50
2019-04-16T06:09:48.140Z,90.00
2019-04-16T06:12:19.082Z,88.20
2019-04-16T06:14:53.847Z,87.70
2019-04-16T06:17:32.165Z,86.30
2019-04-16T06:20:13.201Z,85.00
2019-04-16T06:23:00.611Z,86.10
2019-04-16T06:25:41.282Z,83.60
2019-04-16T06:28:14.828Z,84.30
2019-04-16T06:30:52.106Z,83.40
2019-04-16T06:33:23.052Z,82.00
2019-04-16T06:36:00.305Z,81.70
2019-04-16T06:38:31.253Z,80.50
2019-04-16T06:41:04.032Z,81.20
2019-04-16T06:43:38.866Z,80.60
2019-04-16T06:46:19.740Z,77.80
2019-04-16T06:48:51.482Z,79.20
2019-04-16T06:51:32.196Z,80.10
2019-04-16T06:54:11.055Z,77.70
2019-04-16T06:56:57.632Z,77.80
2019-04-16T06:59:35.025Z,78.70
2019-04-16T07:02:11.637Z,76.70
2019-04-16T07:04:55.196Z,76.20
2019-04-16T07:07:45.948Z,76.50
2019-04-16T07:10:16.196Z,76.20
2019-04-16T07:12:46.478Z,75.50
2019-04-16T07:15:22.817Z,76.50
2019-04-16T07:17:48.665Z,75.60
2019-04-16T07:20:18.964Z,76.60
2019-04-16T07:22:52.735Z,73.90
2019-04-16T07:25:21.175Z,74.50
2019-04-16T07:27:58.422Z,70.80
2019-04-16T07:30:38.979Z,71.50
2019-04-16T07:33:11.733Z,72.30
2019-04-16T07:35:55.198Z,70.30
2019-04-16T07:38:30.668Z,66.80
2019-04-16T07:41:02.425Z,67.90
2019-04-16T07:43:50.232Z,66.10
2019-04-16T07:46:38.342Z,67.10
2019-04-16T07:49:26.569Z,68.30
2019-04-16T07:52:15.114Z,67.40
2019-04-16T07:54:55.431Z,68.50
2019-04-16T07:57:25.525Z,68.90
2019-04-16T07:59:56.861Z,67.80
2019-04-16T08:02:27.041Z,69.40
2019-04-16T08:04:57.191Z,66.60
2019-04-16T08:07:27.369Z,66.10
2019-04-16T08:10:01.671Z,65.80
2019-04-16T08:12:30.840Z,65.50
2019-04-16T08:15:12.644Z,63.70
2019-04-16T08:17:33.161Z,62.40
2019-04-16T08:20:03.372Z,62.30
2019-04-16T08:22:33.621Z,62.70
2019-04-16T08:25:05.456Z,62.90
2019-04-16T08:27:35.607Z,61.40
2019-04-16T08:30:09.255Z,61.10
2019-04-16T08:32:39.469Z,64.50
2019-04-16T08:35:09.784Z,60.20
2019-04-16T08:37:48.959Z,63.70
2019-04-16T08:40:12.222Z,58.80
2019-04-16T08:42:44.706Z,62.10
2019-04-16T08:45:15.532Z,62.20
2019-04-16T08:47:46.098Z,61.20
2019-04-16T08:50:16.370Z,57.30
2019-04-16T08:52:46.518Z,59.20
2019-04-16T08:55:16.540Z,59.20
2019-04-16T08:57:47.074Z,58.60
2019-04-16T09:00:17.773Z,58.40
2019-04-16T09:02:48.821Z,57.40
2019-04-16T09:05:19.067Z,57.30
2019-04-16T09:07:51.039Z,57.70
2019-04-16T09:10:30.130Z,59.30
2019-04-16T09:13:04.118Z,59.70
2019-04-16T09:15:31.764Z,56.70
2019-04-16T09:18:19.682Z,57.70
2019-04-16T09:20:49.227Z,59.20
2019-04-16T09:23:19.268Z,57.70
2019-04-16T09:26:12.110Z,60.40
2019-04-16T09:28:49.312Z,59.30
2019-04-16T09:31:26.677Z,56.10
2019-04-16T09:33:58.980Z,53.80
2019-04-16T09:36:33.602Z,56.60
2019-04-16T09:39:08.150Z,53.80
2019-04-16T09:41:39.945Z,55.30
2019-04-16T09:44:10.111Z,51.70
2019-04-16T09:46:50.966Z,53.00
2019-04-16T09:49:12.038Z,55.90
2019-04-16T09:51:42.210Z,54.00
2019-04-16T09:54:13.374Z,53.60
2019-04-16T09:56:44.121Z,48.80
2019-04-16T09:59:16.753Z,49.80
2019-04-16T10:01:48.812Z,52.20
2019-04-16T10:04:20.150Z,48.90
2019-04-16T10:06:50.510Z,49.10
2019-04-16T10:09:22.471Z,48.90
2019-04-16T10:11:52.545Z,48.60
2019-04-16T10:14:22.792Z,44.10
2019-04-16T10:16:53.000Z,46.80
2019-04-16T10:19:23.166Z,46.80
2019-04-16T10:21:54.260Z,48.70
2019-04-16T10:24:29.422Z,48.80
2019-04-16T10:27:00.089Z,49.10
2019-04-16T10:29:31.844Z,50.70
2019-04-16T10:32:02.103Z,53.00
2019-04-16T10:34:32.217Z,48.90
2019-04-16T10:37:02.370Z,48.80
2019-04-16T10:39:36.845Z,53.30
2019-04-16T10:42:08.702Z,52.90
2019-04-16T10:44:52.284Z,50.20
2019-04-16T10:47:40.089Z,50.90
2019-04-16T10:50:29.733Z,49.40
2019-04-16T10:53:10.235Z,48.40
2019-04-16T10:55:42.110Z,50.70
2019-04-16T10:58:29.987Z,47.10
2019-04-16T11:01:12.703Z,49.90
2019-04-16T11:03:47.111Z,49.80
2019-04-16T11:06:36.777Z,49.60
2019-04-16T11:09:08.096Z,49.10
2019-04-16T11:11:38.752Z,49.70
2019-04-16T11:14:08.960Z,47.10
2019-04-16T11:16:40.741Z,47.60
2019-04-16T11:19:11.145Z,46.90
2019-04-16T11:21:41.365Z,46.90
2019-04-16T11:24:11.579Z,48.40
2019-04-16T11:26:44.440Z,49.10
2019-04-16T11:29:13.632Z,47.70
2019-04-16T11:31:43.901Z,48.10
2019-04-16T11:34:14.061Z,50.70
2019-04-16T11:36:44.267Z,49.40
2019-04-16T11:39:14.421Z,45.30
2019-04-16T11:41:44.688Z,47.60
2019-04-16T11:44:17.191Z,50.50
2019-04-16T11:46:46.736Z,49.90
2019-04-16T11:49:16.823Z,47.20
2019-04-16T11:51:47.015Z,48.10
2019-04-16T11:54:17.213Z,49.30
2019-04-16T11:56:47.392Z,43.10
2019-04-16T11:59:17.593Z,47.40
2019-04-16T12:01:52.029Z,48.60
2019-04-16T12:04:38.502Z,46.70
2019-04-16T12:07:19.050Z,42.70
2019-04-16T12:09:53.515Z,44.30
2019-04-16T12:12:25.242Z,45.90
2019-04-16T12:14:59.526Z,44.20
2019-04-16T12:17:49.215Z,44.40
2019-04-16T12:20:21.058Z,48.40
2019-04-16T12:22:52.814Z,47.80
2019-04-16T12:25:33.253Z,47.50
2019-04-16T12:28:11.620Z,47.60
2019-04-16T12:30:56.893Z,44.90
2019-04-16T12:33:33.376Z,43.40
2019-04-16T12:36:05.135Z,46.90
2019-04-16T12:38:39.363Z,44.30
2019-04-16T12:41:27.009Z,42.30
2019-04-16T12:43:58.765Z,45.40
2019-04-16T12:46:36.429Z,43.10
2019-04-16T12:49:24.036Z,48.50
2019-04-16T12:51:55.788Z,45.30
2019-04-16T12:54:42.230Z,40.80
2019-04-16T12:57:19.546Z,40.70
2019-04-16T13:00:09.108Z,42.30
2019-04-16T13:02:41.889Z,42.50
2019-04-16T13:05:20.903Z,39.90
2019-04-16T13:07:56.095Z,38.50
2019-04-16T13:10:30.489Z,40.40
2019-04-16T13:13:18.116Z,42.70
2019-04-16T13:15:49.837Z,41.50
2019-04-16T13:18:21.636Z,39.90
2019-04-16T13:21:05.937Z,40.00
2019-04-16T13:23:44.033Z,40.70
2019-04-16T13:26:15.820Z,40.90
2019-04-16T13:28:45.991Z,41.30
2019-04-16T13:31:16.217Z,38.00
2019-04-16T13:33:46.857Z,39.30
2019-04-16T13:36:18.053Z,41.50
2019-04-16T13:38:55.331Z,42.70
2019-04-16T13:41:27.136Z,41.60
2019-04-16T13:44:09.390Z,41.80
2019-04-16T13:46:39.699Z,41.00
2019-04-16T13:49:31.406Z,38.90
2019-04-16T13:51:59.109Z,41.20
2019-04-16T13:54:34.395Z,45.20
2019-04-16T13:57:22.686Z,42.10
2019-04-16T14:00:09.957Z,43.60
2019-04-16T14:02:51.218Z,39.00
2019-04-16T14:05:22.784Z,41.10
2019-04-16T14:07:52.953Z,39.10
2019-04-16T14:10:23.188Z,40.80
2019-04-16T14:12:53.342Z,39.20
2019-04-16T14:15:32.455Z,39.80
2019-04-16T14:17:59.689Z,38.60
2019-04-16T14:20:29.051Z,39.10
2019-04-16T14:22:59.284Z,42.30
2019-04-16T14:25:29.516Z,40.60
2019-04-16T14:28:03.073Z,39.10
2019-04-16T14:30:33.023Z,38.30
2019-04-16T14:33:06.249Z,38.10
2019-04-16T14:35:35.355Z,40.90
2019-04-16T14:38:05.658Z,39.10
2019-04-16T14:40:35.832Z,36.40
2019-04-16T14:43:06.281Z,34.60
2019-04-16T14:45:57.003Z,37.00
2019-04-16T14:48:12.790Z,37.20
2019-04-16T14:50:42.895Z,38.50
2019-04-16T14:53:14.625Z,35.80
2019-04-16T14:55:59.050Z,38.50
2019-04-16T14:58:37.812Z,38.00
2019-04-16T15:01:27.422Z,40.70
2019-04-16T15:04:01.963Z,38.50
2019-04-16T15:06:42.548Z,38.60
2019-04-16T15:09:14.370Z,38.00
2019-04-16T15:12:02.948Z,37.80
2019-04-16T15:14:50.079Z,37.70
2019-04-16T15:17:29.363Z,38.80
2019-04-16T15:20:03.898Z,39.30
2019-04-16T15:22:41.570Z,39.80
2019-04-16T15:25:19.337Z,39.50
2019-04-16T15:28:03.035Z,40.70
2019-04-16T15:30:40.662Z,42.00
2019-04-16T15:33:21.173Z,39.30
2019-04-16T15:35:52.959Z,40.50
2019-04-16T15:38:36.510Z,40.70
2019-04-16T15:41:13.089Z,39.40
2019-04-16T15:43:53.117Z,38.90
2019-04-16T15:46:27.471Z,38.40
2019-04-16T15:49:15.243Z,40.10
2019-04-16T15:51:50.579Z,42.10
2019-04-16T15:54:19.365Z,41.70
2019-04-16T15:56:51.015Z,42.00
2019-04-16T15:59:25.396Z,43.00
2019-04-16T16:01:59.976Z,42.60
2019-04-16T16:04:43.391Z,42.90
2019-04-16T16:07:13.659Z,44.90
2019-04-16T16:09:58.915Z,45.60
2019-04-16T16:12:29.595Z,46.40
2019-04-16T16:14:59.704Z,42.30
2019-04-16T16:17:29.872Z,41.90
2019-04-16T16:20:00.111Z,44.30
2019-04-16T16:22:30.189Z,43.10
2019-04-16T16:25:00.300Z,42.00
2019-04-16T16:27:30.320Z,42.80
2019-04-16T16:30:00.420Z,42.70
2019-04-16T16:32:30.587Z,42.50
2019-04-16T16:35:00.697Z,41.90
2019-04-16T16:37:33.930Z,41.10
2019-04-16T16:40:02.963Z,41.50
2019-04-16T16:42:34.741Z,41.80
2019-04-16T16:45:06.161Z,41.10
2019-04-16T16:47:39.893Z,42.90
2019-04-16T16:50:11.831Z,44.80
2019-04-16T16:52:49.834Z,44.30
2019-04-16T16:55:20.238Z,45.00
2019-04-16T16:57:54.581Z,43.80
2019-04-16T17:00:42.674Z,44.70
2019-04-16T17:03:29.418Z,44.90
2019-04-16T17:06:00.673Z,45.50
2019-04-16T17:08:32.196Z,46.70
2019-04-16T17:11:14.701Z,46.00
2019-04-16T17:13:34.063Z,46.20
2019-04-16T17:16:04.230Z,46.80
2019-04-16T17:18:34.389Z,45.90
2019-04-16T17:21:04.746Z,46.50
2019-04-16T17:23:34.965Z,46.90
2019-04-16T17:26:05.089Z,47.70
2019-04-16T17:28:35.187Z,46.80
2019-04-16T17:31:05.598Z,47.70
2019-04-16T17:33:35.786Z,47.20
2019-04-16T17:36:06.924Z,47.50
2019-04-16T17:38:38.018Z,47.80
2019-04-16T17:41:12.373Z,47.60
2019-04-16T17:44:00.303Z,48.90
2019-04-16T17:46:26.121Z,51.20
2019-04-16T17:48:58.016Z,49.60
2019-04-16T17:51:29.921Z,49.60
2019-04-16T17:54:16.590Z,50.20
2019-04-16T17:56:48.248Z,50.70
2019-04-16T17:59:20.059Z,50.70
2019-04-16T18:01:54.430Z,50.40
2019-04-16T18:04:34.776Z,51.40
2019-04-16T18:07:18.687Z,51.50
2019-04-16T18:10:03.347Z,51.50
2019-04-16T18:12:55.118Z,52.40
2019-04-16T18:15:26.422Z,51.20
2019-04-16T18:18:01.351Z,51.40
2019-04-16T18:20:56.805Z,52.20
2019-04-16T18:23:20.524Z,53.90
2019-04-16T18:26:10.331Z,53.70
2019-04-16T18:28:47.970Z,52.80
2019-04-16T18:31:36.381Z,52.40
2019-04-16T18:34:23.417Z,53.60
2019-04-16T18:37:12.598Z,53.40
2019-04-16T18:40:05.333Z,54.30
2019-04-16T18:42:53.019Z,58.30
2019-04-16T18:45:33.469Z,58.20
2019-04-16T18:48:13.729Z,60.60
2019-04-16T18:50:42.782Z,63.60
2019-04-16T18:53:13.744Z,62.00
2019-04-16T18:55:45.705Z,62.80
2019-04-16T18:58:16.019Z,61.90
2019-04-16T19:00:48.951Z,60.50
2019-04-16T19:03:19.278Z,59.50
2019-04-16T19:05:49.558Z,59.80
2019-04-16T19:08:19.885Z,58.10
2019-04-16T19:10:50.195Z,57.70
2019-04-16T19:13:20.476Z,58.00
2019-04-16T19:15:50.745Z,59.60
2019-04-16T19:18:21.193Z,62.40
2019-04-16T19:20:52.660Z,64.60
2019-04-16T19:23:23.025Z,65.20
2019-04-16T19:25:55.434Z,66.50
2019-04-16T19:28:25.371Z,64.30
2019-04-16T19:30:55.708Z,65.40
2019-04-16T19:33:26.033Z,67.00
2019-04-16T19:35:56.371Z,68.20
2019-04-16T19:38:26.732Z,71.70
2019-04-16T19:40:56.961Z,73.80
2019-04-16T19:43:28.363Z,76.40
2019-04-16T19:45:58.900Z,77.90
2019-04-16T19:48:35.720Z,77.00
2019-04-16T19:51:01.011Z,79.10
2019-04-16T19:53:31.244Z,81.30
2019-04-16T19:56:01.479Z,81.50
2019-04-16T19:58:31.793Z,80.60
2019-04-16T20:01:02.106Z,81.60
2019-04-16T20:03:32.364Z,83.60
2019-04-16T20:06:02.586Z,86.50
2019-04-16T20:08:36.671Z,85.10
2019-04-16T20:11:04.637Z,84.10
2019-04-16T20:13:34.882Z,80.90
2019-04-16T20:16:15.571Z,76.70
2019-04-16T20:18:51.388Z,75.30
2019-04-16T20:21:17.681Z,73.80
2019-04-16T20:23:47.924Z,72.40
2019-04-16T20:26:18.088Z,71.90
2019-04-16T20:28:49.299Z,72.30
2019-04-16T20:31:19.393Z,71.90
2019-04-16T20:33:49.640Z,72.00
2019-04-16T20:36:22.607Z,71.50
2019-04-16T20:38:51.704Z,71.60
2019-04-16T20:41:21.808Z,72.20
2019-04-16T20:43:51.878Z,72.70
2019-04-16T20:46:22.180Z,72.20
2019-04-16T20:49:06.418Z,72.10
2019-04-16T20:51:26.684Z,72.10
2019-04-16T20:53:55.998Z,72.70
2019-04-16T20:56:26.098Z,73.20
2019-04-16T20:58:56.251Z,76.60
2019-04-16T21:01:35.175Z,79.90
2019-04-16T21:04:04.970Z,78.90
2019-04-16T21:06:30.415Z,80.50
2019-04-16T21:09:00.925Z,78.70
2019-04-16T21:11:32.742Z,80.20
2019-04-16T21:14:03.874Z,78.30
2019-04-16T21:16:35.039Z,76.20
2019-04-16T21:19:05.385Z,75.00
2019-04-16T21:21:38.100Z,74.50
2019-04-16T21:24:08.571Z,74.80
2019-04-16T21:26:39.284Z,74.80
2019-04-16T21:29:26.134Z,74.90
2019-04-16T21:32:16.713Z,74.90
2019-04-16T21:34:46.044Z,76.30
2019-04-16T21:37:17.848Z,76.70
2019-04-16T21:39:52.194Z,77.20
2019-04-16T21:42:22.452Z,77.90
2019-04-16T21:44:52.682Z,77.50
2019-04-16T21:47:23.590Z,76.90
2019-04-16T21:49:54.743Z,77.00
2019-04-16T21:52:24.923Z,76.80
2019-04-16T21:54:55.545Z,77.00
2019-04-16T21:57:25.812Z,80.10
2019-04-16T21:59:58.219Z,83.60
2019-04-16T22:02:29.454Z,79.80
2019-04-16T22:04:59.617Z,77.50
2019-04-16T22:07:29.852Z,78.90
2019-04-16T22:10:00.118Z,79.70
2019-04-16T22:12:30.292Z,78.50
2019-04-16T22:15:00.364Z,82.00
2019-04-16T22:17:35.512Z,84.90
2019-04-16T22:20:04.111Z,83.10
2019-04-16T22:22:34.327Z,83.40
2019-04-16T22:25:05.764Z,83.70
2019-04-16T22:27:39.352Z,85.90
2019-04-16T22:30:07.801Z,86.10
2019-04-16T22:32:38.146Z,86.00
2019-04-16T22:35:08.478Z,88.40
2019-04-16T22:37:38.581Z,89.80
2019-04-16T22:40:13.898Z,90.90
2019-04-16T22:43:06.313Z,90.30
2019-04-16T22:45:40.583Z,90.50
2019-04-16T22:48:10.871Z,91.90
2019-04-16T22:50:40.997Z,92.30
2019-04-16T22:53:11.327Z,92.20
2019-04-16T22:55:42.703Z,92.30
2019-04-16T22:58:25.815Z,92.10
2019-04-16T23:00:57.663Z,92.50
2019-04-16T23:03:27.958Z,93.10
2019-04-16T23:06:00.994Z,93.50
2019-04-16T23:08:30.032Z,93.30
2019-04-16T23:11:00.150Z,92.50
2019-04-16T23:13:32.668Z,92.80
2019-04-16T23:16:02.019Z,93.00
2019-04-16T23:18:32.255Z,93.10
2019-04-16T23:21:02.590Z,93.20
2019-04-16T23:23:32.737Z,93.20
2019-04-16T23:26:03.330Z,92.80
2019-04-16T23:28:33.541Z,93.00
2019-04-16T23:31:03.735Z,93.00
2019-04-16T23:33:33.984Z,93.20
2019-04-16T23:36:04.493Z,92.90
2019-04-16T23:38:34.759Z,92.90
2019-04-16T23:41:05.191Z,93.40
2019-04-16T23:43:36.999Z,93.30
2019-04-16T23:46:08.927Z,93.30
2019-04-16T23:48:40.780Z,93.30
2019-04-16T23:51:21.157Z,93.70
2019-04-16T23:53:58.873Z,94.40
2019-04-16T23:56:30.738Z,94.30
2019-04-16T23:59:04.613Z,94.30
